createdAt,value
2024-01-24T00:01:11.973Z,0.90
2024-01-24T00:03:38.895Z,0.70
2024-01-24T00:06:06.343Z,0.60
2024-01-24T00:08:34.292Z,0.95
2024-01-24T00:11:02.912Z,0.93
2024-01-24T00:13:29.777Z,0.77
2024-01-24T00:15:56.697Z,0.63
2024-01-24T00:18:25.048Z,0.80
2024-01-24T00:20:55.397Z,0.70
2024-01-24T00:23:24.084Z,0.80
2024-01-24T00:25:50.951Z,0.85
2024-01-24T00:28:17.893Z,0.93
2024-01-24T00:30:45.148Z,1.15
2024-01-24T00:33:12.237Z,0.60
2024-01-24T00:35:40.480Z,0.60
2024-01-24T00:38:07.344Z,0.70
2024-01-24T00:40:34.178Z,0.70
2024-01-24T00:43:02.344Z,0.77
2024-01-24T00:45:29.251Z,0.60
2024-01-24T00:47:56.535Z,0.75
2024-01-24T00:50:23.463Z,0.60
2024-01-24T00:52:53.446Z,0.70
2024-01-24T00:55:20.487Z,0.68
2024-01-24T00:57:47.454Z,0.40
2024-01-24T01:00:15.852Z,0.55
2024-01-24T01:02:44.339Z,0.70
2024-01-24T01:05:13.647Z,0.60
2024-01-24T01:07:40.730Z,0.60
2024-01-24T01:10:11.062Z,0.57
2024-01-24T01:12:38.114Z,0.60
2024-01-24T01:15:06.147Z,0.70
2024-01-24T01:17:34.245Z,0.57
2024-01-24T01:20:01.827Z,0.60
2024-01-24T01:22:28.808Z,0.93
2024-01-24T01:24:57.593Z,0.80
2024-01-24T01:27:26.966Z,0.90
2024-01-24T01:29:53.933Z,0.70
2024-01-24T01:32:22.076Z,0.75
2024-01-24T01:34:50.330Z,0.77
2024-01-24T01:37:20.456Z,0.98
2024-01-24T01:39:47.616Z,0.63
2024-01-24T01:42:16.584Z,0.50
2024-01-24T01:44:49.420Z,0.82
2024-01-24T01:47:17.466Z,1.10
2024-01-24T01:49:45.977Z,1.38
2024-01-24T01:52:23.912Z,0.73
2024-01-24T01:54:54.654Z,1.00
2024-01-24T01:57:22.360Z,0.77
2024-01-24T01:59:53.865Z,0.55
2024-01-24T02:02:21.054Z,0.75
2024-01-24T02:04:48.014Z,0.70
2024-01-24T02:07:16.611Z,0.95
2024-01-24T02:09:46.680Z,0.52
2024-01-24T02:12:13.544Z,1.00
2024-01-24T02:14:43.125Z,0.70
2024-01-24T02:17:11.348Z,1.08
2024-01-24T02:19:38.526Z,1.08
2024-01-24T02:22:05.397Z,0.75
2024-01-24T02:24:33.647Z,1.10
2024-01-24T02:27:00.499Z,1.85
2024-01-24T02:29:27.324Z,1.70
2024-01-24T02:31:54.179Z,2.55
2024-01-24T02:34:21.110Z,1.85
2024-01-24T02:36:48.125Z,1.75
2024-01-24T02:39:15.101Z,2.65
2024-01-24T02:41:43.373Z,2.17
2024-01-24T02:44:10.930Z,1.73
2024-01-24T02:46:37.855Z,2.60
2024-01-24T02:49:04.934Z,2.05
2024-01-24T02:51:31.794Z,2.22
2024-01-24T02:53:58.662Z,2.03
2024-01-24T02:56:25.781Z,1.88
2024-01-24T02:58:54.091Z,2.78
2024-01-24T03:01:20.971Z,2.80
2024-01-24T03:03:48.244Z,3.65
2024-01-24T03:06:15.439Z,2.42
2024-01-24T03:08:49.867Z,3.88
2024-01-24T03:11:17.022Z,2.08
2024-01-24T03:13:44.008Z,2.92
2024-01-24T03:16:12.365Z,3.50
2024-01-24T03:18:40.299Z,2.95
2024-01-24T03:21:10.148Z,3.25
2024-01-24T03:23:40.224Z,3.15
2024-01-24T03:26:07.732Z,3.63
2024-01-24T03:28:34.882Z,3.00
2024-01-24T03:31:02.160Z,4.03
2024-01-24T03:33:31.037Z,3.17
2024-01-24T03:35:58.021Z,3.28
2024-01-24T03:38:24.898Z,3.13
2024-01-24T03:40:51.791Z,3.60
2024-01-24T03:43:18.864Z,4.43
2024-01-24T03:45:45.798Z,4.90
2024-01-24T03:48:12.870Z,4.25
2024-01-24T03:50:41.325Z,3.25
2024-01-24T03:53:08.143Z,3.92
2024-01-24T03:55:34.994Z,5.22
2024-01-24T03:58:01.903Z,4.82
2024-01-24T04:00:29.268Z,5.13
2024-01-24T04:02:56.274Z,4.00
2024-01-24T04:05:23.090Z,4.13
2024-01-24T04:07:51.439Z,4.18
2024-01-24T04:10:18.303Z,6.10
2024-01-24T04:12:45.184Z,5.10
2024-01-24T04:15:12.322Z,5.43
2024-01-24T04:17:39.223Z,5.10
2024-01-24T04:20:07.375Z,4.82
2024-01-24T04:22:34.271Z,5.63
2024-01-24T04:25:02.702Z,4.97
2024-01-24T04:27:29.604Z,3.95
2024-01-24T04:29:56.452Z,6.20
2024-01-24T04:32:23.343Z,6.50
2024-01-24T04:34:50.314Z,4.65
2024-01-24T04:37:17.232Z,6.13
2024-01-24T04:39:44.151Z,5.70
2024-01-24T04:42:16.609Z,5.72
2024-01-24T04:44:44.739Z,5.65
2024-01-24T04:47:14.785Z,6.55
2024-01-24T04:49:45.237Z,5.18
2024-01-24T04:52:13.283Z,6.07
2024-01-24T04:54:40.185Z,5.70
2024-01-24T04:57:07.211Z,5.20
2024-01-24T04:59:46.266Z,4.95
2024-01-24T05:02:21.181Z,5.97
2024-01-24T05:04:49.029Z,5.90
2024-01-24T05:07:16.371Z,5.35
2024-01-24T05:09:43.398Z,7.38
2024-01-24T05:12:11.153Z,5.95
2024-01-24T05:14:39.612Z,6.38
2024-01-24T05:17:06.557Z,5.38
2024-01-24T05:19:33.941Z,5.72
2024-01-24T05:22:01.081Z,6.40
2024-01-24T05:24:28.091Z,5.00
2024-01-24T05:27:22.294Z,6.20
2024-01-24T05:29:50.540Z,6.38
2024-01-24T05:32:17.482Z,5.13
2024-01-24T05:34:44.470Z,5.85
2024-01-24T05:37:11.659Z,7.97
2024-01-24T05:39:38.638Z,6.65
2024-01-24T05:42:05.986Z,6.50
2024-01-24T05:44:32.809Z,6.97
2024-01-24T05:47:01.114Z,6.43
2024-01-24T05:49:28.098Z,6.18
2024-01-24T05:51:55.162Z,6.10
2024-01-24T05:54:22.489Z,7.63
2024-01-24T05:56:49.443Z,6.82
2024-01-24T05:59:16.333Z,7.72
2024-01-24T06:01:44.660Z,6.57
2024-01-24T06:04:13.283Z,6.13
2024-01-24T06:06:40.440Z,7.30
2024-01-24T06:09:07.394Z,7.53
2024-01-24T06:11:34.676Z,6.80
2024-01-24T06:14:01.583Z,6.97
2024-01-24T06:16:28.481Z,6.82
2024-01-24T06:18:55.508Z,5.43
2024-01-24T06:21:23.829Z,5.82
2024-01-24T06:23:50.910Z,6.90
2024-01-24T06:26:17.841Z,7.00
2024-01-24T06:28:44.715Z,6.55
2024-01-24T06:31:11.750Z,7.38
2024-01-24T06:33:38.679Z,8.45
2024-01-24T06:36:05.851Z,6.45
2024-01-24T06:38:34.071Z,7.20
2024-01-24T06:41:00.916Z,8.07
2024-01-24T06:43:27.843Z,6.13
2024-01-24T06:45:55.536Z,7.60
2024-01-24T06:48:22.608Z,6.80
2024-01-24T06:50:49.640Z,7.50
2024-01-24T06:53:16.608Z,7.32
2024-01-24T06:55:45.379Z,6.00
2024-01-24T06:58:12.294Z,8.05
2024-01-24T07:00:39.193Z,6.57
2024-01-24T07:03:06.171Z,6.22
2024-01-24T07:05:33.169Z,8.13
2024-01-24T07:08:00.150Z,8.82
2024-01-24T07:10:26.995Z,7.38
2024-01-24T07:12:56.972Z,8.05
2024-01-24T07:15:23.927Z,6.70
2024-01-24T07:17:50.936Z,5.90
2024-01-24T07:20:19.750Z,7.57
2024-01-24T07:22:46.872Z,7.15
2024-01-24T07:25:13.923Z,6.47
2024-01-24T07:27:41.167Z,7.68
2024-01-24T07:30:10.110Z,6.40
2024-01-24T07:32:40.799Z,6.95
2024-01-24T07:35:09.336Z,6.03
2024-01-24T07:37:36.322Z,6.63
2024-01-24T07:40:03.704Z,5.57
2024-01-24T07:42:30.917Z,6.65
2024-01-24T07:44:58.218Z,7.75
2024-01-24T07:47:26.751Z,8.13
2024-01-24T07:49:54.344Z,6.63
2024-01-24T07:52:29.024Z,6.72
2024-01-24T07:55:04.484Z,7.60
2024-01-24T07:57:31.582Z,7.70
2024-01-24T07:59:59.316Z,7.80
2024-01-24T08:02:27.871Z,5.20
2024-01-24T08:04:55.198Z,7.40
2024-01-24T08:07:22.210Z,6.53
2024-01-24T08:09:49.404Z,7.47
2024-01-24T08:12:16.492Z,6.65
2024-01-24T08:14:43.996Z,6.75
2024-01-24T08:17:15.206Z,7.18
2024-01-24T08:19:43.464Z,5.63
2024-01-24T08:22:11.165Z,7.38
2024-01-24T08:24:38.072Z,6.22
2024-01-24T08:27:05.276Z,6.20
2024-01-24T08:29:36.955Z,6.80
2024-01-24T08:32:06.023Z,6.45
2024-01-24T08:34:33.980Z,7.53
2024-01-24T08:37:02.678Z,7.10
2024-01-24T08:39:29.631Z,7.45
2024-01-24T08:41:56.691Z,6.68
2024-01-24T08:44:23.589Z,7.57
2024-01-24T08:46:52.031Z,6.93
2024-01-24T08:49:19.489Z,7.10
2024-01-24T08:51:46.654Z,7.60
2024-01-24T08:54:15.117Z,9.00
2024-01-24T08:56:42.204Z,5.93
2024-01-24T08:59:09.147Z,6.28
2024-01-24T09:01:36.134Z,6.40
2024-01-24T09:04:03.412Z,6.63
2024-01-24T09:06:30.381Z,6.15
2024-01-24T09:08:57.578Z,6.97
2024-01-24T09:11:31.564Z,7.82
2024-01-24T09:14:05.106Z,6.85
2024-01-24T09:16:32.290Z,7.60
2024-01-24T09:18:59.509Z,6.00
2024-01-24T09:21:27.064Z,7.28
2024-01-24T09:23:54.115Z,5.93
2024-01-24T09:26:21.262Z,5.95
2024-01-24T09:28:49.508Z,7.35
2024-01-24T09:31:16.429Z,7.07
2024-01-24T09:33:43.432Z,7.63
2024-01-24T09:36:11.135Z,7.50
2024-01-24T09:38:38.051Z,6.18
2024-01-24T09:41:14.850Z,7.55
2024-01-24T09:43:42.477Z,6.18
2024-01-24T09:46:16.866Z,6.60
2024-01-24T09:48:47.621Z,7.00
2024-01-24T09:51:15.179Z,6.18
2024-01-24T09:53:45.975Z,6.00
2024-01-24T09:56:14.294Z,7.85
2024-01-24T09:58:41.330Z,8.52
2024-01-24T10:01:14.496Z,6.82
2024-01-24T10:03:42.435Z,6.82
2024-01-24T10:06:11.284Z,6.50
2024-01-24T10:08:38.217Z,7.00
2024-01-24T10:11:05.283Z,6.47
2024-01-24T10:13:32.532Z,5.93
2024-01-24T10:16:01.005Z,5.72
2024-01-24T10:18:30.227Z,5.63
2024-01-24T10:20:57.466Z,5.57
2024-01-24T10:23:24.478Z,5.38
2024-01-24T10:25:51.641Z,6.85
2024-01-24T10:28:19.023Z,5.85
2024-01-24T10:30:48.413Z,6.38
2024-01-24T10:33:19.105Z,5.82
2024-01-24T10:35:48.173Z,5.35
2024-01-24T10:38:23.347Z,5.35
2024-01-24T10:40:59.001Z,5.70
2024-01-24T10:43:26.778Z,5.38
2024-01-24T10:45:54.997Z,5.60
2024-01-24T10:48:22.346Z,4.25
2024-01-24T10:50:51.877Z,5.03
2024-01-24T10:53:21.742Z,6.32
2024-01-24T10:55:51.743Z,5.55
2024-01-24T10:58:20.275Z,5.90
2024-01-24T11:00:47.481Z,5.40
2024-01-24T11:03:15.445Z,5.88
2024-01-24T11:05:48.482Z,5.03
2024-01-24T11:08:35.624Z,5.90
2024-01-24T11:11:14.035Z,6.20
2024-01-24T11:16:34.169Z,5.18
2024-01-24T11:19:21.035Z,4.88
2024-01-24T11:21:48.350Z,5.22
2024-01-24T11:24:51.342Z,5.90
2024-01-24T11:27:42.317Z,5.90
2024-01-24T11:30:20.732Z,5.65
2024-01-24T11:33:02.133Z,4.28
2024-01-24T11:35:33.642Z,4.20
2024-01-24T11:40:36.259Z,5.40
2024-01-24T11:43:05.080Z,5.18
2024-01-24T11:45:32.250Z,4.65
2024-01-24T11:47:59.254Z,5.05
2024-01-24T11:50:26.677Z,4.68
2024-01-24T11:52:59.741Z,5.53
2024-01-24T11:55:26.843Z,5.47
2024-01-24T11:57:56.134Z,5.47
2024-01-24T12:04:35.862Z,4.80
2024-01-24T12:07:03.468Z,4.80
2024-01-24T12:09:30.661Z,4.30
2024-01-24T12:11:57.787Z,4.60
2024-01-24T12:14:27.629Z,5.10
2024-01-24T12:16:57.131Z,4.07
2024-01-24T12:19:25.285Z,4.72
2024-01-24T12:21:53.277Z,4.63
2024-01-24T12:24:20.864Z,4.68
2024-01-24T12:26:52.245Z,5.45
2024-01-24T12:29:22.290Z,5.35
2024-01-24T12:31:50.945Z,3.92
2024-01-24T12:34:21.813Z,4.60
2024-01-24T12:36:49.272Z,4.75
2024-01-24T12:39:16.450Z,4.65
2024-01-24T12:41:45.158Z,4.00
2024-01-24T12:44:13.304Z,4.18
2024-01-24T12:46:40.683Z,4.45
2024-01-24T12:49:09.074Z,4.60
2024-01-24T12:51:41.285Z,5.60
2024-01-24T12:54:08.415Z,5.32
2024-01-24T12:56:35.375Z,4.53
2024-01-24T12:59:02.474Z,5.13
2024-01-24T13:01:29.690Z,5.63
2024-01-24T13:03:56.977Z,4.38
2024-01-24T13:06:25.692Z,5.40
2024-01-24T13:08:52.891Z,6.03
2024-01-24T13:11:19.827Z,4.82
2024-01-24T13:13:46.765Z,6.65
2024-01-24T13:20:57.265Z,4.85
2024-01-24T13:56:47.738Z,5.20
2024-01-24T13:59:15.007Z,6.28
2024-01-24T14:01:45.802Z,5.25
2024-01-24T14:04:18.207Z,5.72
2024-01-24T14:06:45.509Z,5.35
2024-01-24T14:09:12.468Z,4.50
2024-01-24T14:11:40.451Z,5.78
2024-01-24T14:14:08.346Z,5.18
2024-01-24T14:16:35.812Z,5.97
2024-01-24T14:19:02.975Z,5.55
2024-01-24T14:21:33.124Z,5.75
2024-01-24T14:28:02.633Z,5.38
2024-01-24T16:14:43.278Z,5.57
2024-01-24T16:17:26.925Z,5.53
2024-01-24T16:19:57.115Z,5.10
2024-01-24T16:22:36.577Z,5.80
2024-01-24T16:25:15.993Z,5.45
2024-01-24T16:27:45.759Z,6.80
2024-01-24T16:30:14.596Z,6.43
2024-01-24T16:32:41.671Z,5.97
2024-01-24T16:35:13.330Z,5.38
2024-01-24T16:37:41.145Z,6.00
2024-01-24T16:40:09.575Z,5.63
2024-01-24T16:42:37.370Z,7.47
2024-01-24T16:45:07.163Z,5.35
2024-01-24T16:47:37.889Z,6.05
2024-01-24T16:50:07.130Z,7.90
2024-01-24T16:52:34.314Z,5.68
2024-01-24T16:55:01.621Z,7.35
2024-01-24T16:57:28.888Z,8.50
2024-01-24T16:59:58.336Z,5.63
2024-01-24T17:02:34.180Z,6.22
2024-01-24T17:05:07.201Z,7.82
2024-01-24T17:07:34.561Z,8.27
2024-01-24T17:10:01.567Z,6.25
2024-01-24T17:12:29.274Z,9.07
2024-01-24T17:14:56.826Z,7.47
2024-01-24T17:17:23.784Z,6.47
2024-01-24T17:19:50.819Z,7.68
2024-01-24T17:22:19.116Z,5.28
2024-01-24T17:24:46.006Z,5.72
2024-01-24T17:27:12.931Z,8.30
2024-01-24T17:29:40.231Z,6.53
2024-01-24T17:32:07.393Z,6.78
2024-01-24T17:34:34.400Z,7.22
2024-01-24T17:37:01.747Z,7.57
2024-01-24T17:39:30.228Z,6.53
2024-01-24T17:41:57.959Z,6.40
2024-01-24T17:44:24.879Z,7.38
2024-01-24T17:46:51.789Z,5.97
2024-01-24T17:49:19.024Z,6.63
2024-01-24T17:51:46.197Z,7.15
2024-01-24T17:54:13.186Z,6.13
2024-01-24T17:56:41.619Z,6.30
2024-01-24T17:59:10.116Z,7.25
2024-01-24T18:01:39.468Z,20.98
2024-01-24T18:04:06.997Z,11.98
2024-01-24T18:06:34.159Z,8.50
2024-01-24T18:09:01.243Z,7.82
2024-01-24T18:11:28.235Z,6.90
2024-01-24T18:13:56.509Z,8.40
2024-01-24T18:16:24.417Z,6.03
2024-01-24T18:18:52.260Z,5.85
2024-01-24T18:21:19.377Z,6.97
2024-01-24T18:23:46.226Z,7.05
2024-01-24T18:26:13.182Z,6.85
2024-01-24T18:28:40.178Z,6.28
2024-01-24T18:31:08.562Z,6.47
2024-01-24T18:33:35.705Z,6.00
2024-01-24T18:36:04.889Z,6.30
2024-01-24T18:38:31.858Z,5.88
2024-01-24T18:40:58.920Z,6.45
2024-01-24T18:43:25.922Z,6.88
2024-01-24T18:45:52.925Z,7.00
2024-01-24T18:48:21.598Z,6.53
2024-01-24T18:50:48.746Z,6.32
2024-01-24T18:53:19.132Z,6.13
2024-01-24T18:56:06.639Z,5.43
2024-01-24T18:58:34.444Z,5.82
2024-01-24T19:01:02.948Z,5.97
2024-01-24T19:03:31.589Z,7.05
2024-01-24T19:05:58.992Z,6.32
2024-01-24T19:08:26.165Z,7.20
2024-01-24T19:10:54.448Z,8.13
2024-01-24T19:13:24.936Z,7.13
2024-01-24T19:15:51.805Z,7.00
2024-01-24T19:18:22.733Z,6.93
2024-01-24T19:20:53.230Z,7.43
2024-01-24T19:23:38.332Z,9.05
2024-01-24T19:26:16.036Z,6.38
2024-01-24T19:28:52.400Z,5.47
2024-01-24T19:31:28.484Z,7.82
2024-01-24T19:33:55.522Z,6.93
2024-01-24T19:36:23.930Z,7.72
2024-01-24T19:38:50.811Z,6.97
2024-01-24T19:41:18.225Z,6.82
2024-01-24T19:44:13.586Z,7.10
2024-01-24T19:46:52.782Z,7.13
2024-01-24T19:49:27.676Z,6.97
2024-01-24T19:51:56.289Z,8.45
2024-01-24T19:54:46.298Z,8.07
2024-01-24T19:57:25.914Z,7.18
2024-01-24T19:59:56.153Z,6.82
2024-01-24T20:03:04.968Z,5.82
2024-01-24T20:05:31.830Z,6.65
2024-01-24T20:08:00.397Z,7.18
2024-01-24T20:10:27.700Z,8.02
2024-01-24T20:12:54.910Z,7.70
2024-01-24T20:15:59.606Z,7.95
2024-01-24T20:18:47.068Z,7.00
2024-01-24T20:21:14.224Z,7.88
2024-01-24T20:23:46.031Z,7.45
2024-01-24T20:26:18.438Z,6.57
2024-01-24T20:29:25.566Z,6.80
2024-01-24T20:36:15.030Z,5.55
2024-01-24T20:38:55.782Z,5.93
2024-01-24T20:41:24.674Z,7.70
2024-01-24T20:43:51.852Z,8.63
2024-01-24T20:46:18.938Z,6.63
2024-01-24T20:48:46.189Z,7.53
2024-01-24T20:51:19.436Z,8.20
2024-01-24T20:53:49.577Z,7.80
2024-01-24T20:56:23.417Z,7.70
2024-01-24T20:58:58.289Z,8.10
2024-01-24T21:01:25.463Z,8.57
2024-01-24T21:03:54.145Z,8.60
2024-01-24T21:06:28.423Z,7.95
2024-01-24T21:09:24.441Z,9.15
2024-01-24T21:11:53.103Z,7.63
2024-01-24T21:14:47.042Z,7.88
2024-01-24T21:17:18.367Z,9.75
2024-01-24T21:19:55.853Z,11.25
2024-01-24T21:22:23.208Z,8.75
2024-01-24T21:24:53.405Z,7.97
2024-01-24T21:27:25.278Z,5.60
2024-01-24T21:29:52.178Z,6.85
2024-01-24T21:36:04.723Z,6.90
2024-01-24T21:38:32.501Z,7.10
2024-01-24T21:40:59.404Z,5.65
2024-01-24T21:43:27.644Z,7.65
2024-01-24T21:45:54.576Z,4.68
2024-01-24T21:48:21.521Z,6.30
2024-01-24T21:50:48.381Z,6.53
2024-01-24T21:53:15.263Z,6.60
2024-01-24T21:55:42.809Z,6.88
2024-01-24T21:58:09.682Z,8.70
2024-01-24T22:00:38.020Z,6.13
2024-01-24T22:03:05.507Z,6.90
2024-01-24T22:05:32.382Z,6.47
2024-01-24T22:07:59.973Z,7.32
2024-01-24T22:10:27.097Z,6.03
2024-01-24T22:12:56.000Z,7.70
2024-01-24T22:15:22.939Z,7.65
2024-01-24T22:17:51.250Z,8.43
2024-01-24T22:20:18.270Z,6.43
2024-01-24T22:22:45.181Z,7.90
2024-01-24T22:25:12.122Z,6.60
2024-01-24T22:27:39.111Z,7.00
2024-01-24T22:30:07.293Z,6.95
2024-01-24T22:32:34.526Z,7.47
2024-01-24T22:35:04.977Z,6.22
2024-01-24T22:37:31.975Z,6.88
2024-01-24T22:39:59.195Z,6.28
2024-01-24T22:42:26.207Z,6.38
2024-01-24T22:44:53.043Z,7.47
2024-01-24T22:47:20.756Z,5.95
2024-01-24T22:49:47.784Z,6.03
2024-01-24T22:52:16.428Z,5.15
2024-01-24T22:54:43.573Z,6.40
2024-01-24T22:57:10.571Z,6.50
2024-01-24T22:59:37.443Z,5.55
2024-01-24T23:02:04.957Z,5.70
2024-01-24T23:04:32.102Z,6.35
2024-01-24T23:06:59.374Z,6.32
2024-01-24T23:09:27.698Z,5.57
2024-01-24T23:11:54.652Z,5.85
2024-01-24T23:14:21.480Z,6.57
2024-01-24T23:16:48.312Z,6.85
2024-01-24T23:19:15.781Z,5.40
2024-01-24T23:21:42.946Z,6.50
2024-01-24T23:24:09.930Z,6.05
2024-01-24T23:26:38.764Z,6.13
2024-01-24T23:29:06.331Z,6.78
2024-01-24T23:31:33.211Z,5.43
2024-01-24T23:34:00.606Z,6.50
2024-01-24T23:36:27.678Z,5.22
2024-01-24T23:38:56.209Z,5.10
2024-01-24T23:41:23.972Z,6.57
2024-01-24T23:43:52.563Z,5.93
2024-01-24T23:46:19.573Z,6.35
2024-01-24T23:48:46.699Z,5.85
2024-01-24T23:51:14.206Z,6.20
2024-01-24T23:53:41.313Z,4.75
2024-01-24T23:56:08.344Z,4.97
2024-01-24T23:58:36.397Z,5.65
